This is the latest recevied weather packets stored in our database for station/object KA8DUX-2. If no packets are shown the sender has not sent any weather packets the latest 10 day(s).
| Time | Temp. | Humidity | Pressure | Rain* | Wind** | Luminosity | Snow |
|---|---|---|---|---|---|---|---|
| 1777735664 | 8.33° C | 49% | 1017.6 hPa | 0 mm | - | 872 W/m² | - |
| 1777735362 | 7.78° C | 52% | 1017.5 hPa | 0 mm | - | 128 W/m² | - |
| 1777735059 | 7.78° C | 52% | 1017.5 hPa | 0 mm | - | 155 W/m² | - |
| 1777734756 | 8.33° C | 50% | 1017.8 hPa | 0 mm | - | 201 W/m² | - |
| 1777734454 | 8.89° C | 48% | 1017.5 hPa | 0 mm | - | 888 W/m² | - |
| 1777734150 | 8.89° C | 49% | 1017.8 hPa | 0 mm | - | 843 W/m² | - |
| 1777733846 | 8.89° C | 48% | 1017.8 hPa | 0 mm | - | 790 W/m² | - |
| 1777733543 | 7.22° C | 52% | 1017.9 hPa | 0 mm | - | 525 W/m² | - |
| 1777733240 | 8.33° C | 51% | 1017.7 hPa | 0 mm | - | 134 W/m² | - |
| 1777732936 | 8.89° C | 52% | 1017.8 hPa | 0 mm | - | 189 W/m² | - |
| 1777732632 | 7.22° C | 53% | 1017.7 hPa | 0 mm | - | 775 W/m² | - |
| 1777732330 | 7.78° C | 53% | 1017.5 hPa | 0 mm | - | 687 W/m² | - |
| 1777732028 | 7.22° C | 56% | 1017.7 hPa | 0 mm | - | 667 W/m² | - |
| 1777731724 | 6.67° C | 54% | 1017.8 hPa | 0 mm | - | 685 W/m² | - |
| 1777731421 | 7.22° C | 54% | 1017.8 hPa | 0 mm | - | 633 W/m² | - |
| 1777731120 | 6.67° C | 58% | 1017.9 hPa | 0 mm | - | 546 W/m² | - |
| 1777730514 | 6.67° C | 59% | 1017.9 hPa | 0 mm | - | 70 W/m² | - |
| 1777730209 | 7.78° C | 56% | 1017.9 hPa | 0 mm | - | 260 W/m² | - |
| 1777729907 | 7.78° C | 59% | 1018.2 hPa | 0 mm | - | 401 W/m² | - |
| 1777729603 | 7.22° C | 61% | 1018.1 hPa | 0 mm | - | 388 W/m² | - |
| 1777729300 | 6.67° C | 64% | 1018.1 hPa | 0 mm | - | 384 W/m² | - |
| 1777728997 | 5.56° C | 65% | 1017.7 hPa | 0 mm | - | 356 W/m² | - |
| 1777728693 | 5° C | 69% | 1018 hPa | 0 mm | - | 339 W/m² | - |
| 1777728390 | 5° C | 69% | 1017.9 hPa | 0 mm | - | 325 W/m² | - |
| 1777728087 | 5.56° C | 67% | 1017.9 hPa | 0 mm | - | 284 W/m² | - |
* Rain latest hour (hover to see other rain measurements)
** Current wind speed in m/s (hover to see current wind gust speed)